Flight Track Log - Related Links

Times and Time Zones

All times are in EDT time to prevent confusion due to time zone crossing. See the N869MA flight status page for this flight to view local times or setup timezone preferences in your user account.

Time Position Orientation Groundspeed Altitude Reporting Facility
EDT Latitude Longitude Course Direction KTS MPH feet Rate Location/Type
Mon 07:43:13 AM 40.1217 -83.2203 297° West 112 129 5,300  Level Indianapolis Center
Mon 07:44:14 AM 40.1347 -83.2542 297° West 107 123 6,400 1,073 Climbing Indianapolis Center
Mon 07:45:16 AM 40.1481 -83.2883 297° West 105 121 7,500 1,161 Climbing Indianapolis Center
Mon 07:46:18 AM 40.1619 -83.3289 294° West 105 121 8,800 1,171 Climbing Indianapolis Center
Mon 07:47:19 AM 40.1758 -83.3642 297° West 106 122 9,900 780 Climbing Indianapolis Center
Mon 07:48:21 AM 40.1903 -83.4022 296° West 116 133 10,400 242 Climbing Indianapolis Center
Mon 07:49:23 AM 40.2086 -83.4533 295° West 147 169 10,400 293 Level Indianapolis Center
Mon 07:50:24 AM 40.2286 -83.5053 297° West 158 182 11,000 780 Climbing Indianapolis Center
Mon 07:51:26 AM 40.2439 -83.5478 295° West 143 165 12,000 677 Climbing Indianapolis Center
Mon 07:52:28 AM 40.2589 -83.5886 296° West 129 148 12,400 195 Climbing Indianapolis Center
Mon 07:53:29 AM 40.2767 -83.6350 297° West 136 157 12,400  Level Indianapolis Center
Mon 07:54:31 AM 40.2939 -83.6836 295° West 143 165 12,400  Level Indianapolis Center
Mon 07:55:33 AM 40.3144 -83.7369 297° West 142 163 12,400  Level Indianapolis Center
Mon 07:56:34 AM 40.3319 -83.7847 296° West 143 165 12,400  Level Indianapolis Center
Mon 07:57:36 AM 40.3489 -83.8317 295° West 142 163 12,400 48 Level Indianapolis Center
Mon 07:58:38 AM 40.3669 -83.8797 296° West 144 166 12,500 49 Climbing Indianapolis Center
Mon 07:59:39 AM 40.3847 -83.9275 296° West 145 167 12,500 -49 Level Indianapolis Center
Mon 08:00:41 AM 40.4017 -83.9750 295° West 143 165 12,400  Descending Indianapolis Center
Mon 08:01:43 AM 40.4189 -84.0228 295° West 143 165 12,500 49 Climbing Indianapolis Center
Mon 08:02:44 AM 40.4364 -84.0689 297° West 140 161 12,500  Level Indianapolis Center
Mon 08:03:46 AM 40.4531 -84.1161 295° West 140 161 12,500  Level Indianapolis Center
Mon 08:04:48 AM 40.4728 -84.1708 295° West 140 161 12,500 -48 Level Indianapolis Center
Mon 08:05:50 AM 40.4908 -84.2192 296° West 146 168 12,400  Descending Indianapolis Center
Mon 08:06:51 AM 40.5075 -84.2639 296° West 138 159 12,500 49 Climbing Indianapolis Center
Mon 08:07:53 AM 40.5244 -84.3125 295° West 144 166 12,500  Level Indianapolis Center
Mon 08:08:55 AM 40.5422 -84.3594 297° West 143 165 12,500 -48 Level Indianapolis Center
Mon 08:09:57 AM 40.5589 -84.4069 295° West 142 163 12,400 -49 Descending Indianapolis Center
Mon 08:10:58 AM 40.5753 -84.4547 294° West 143 165 12,400  Level Indianapolis Center
Mon 08:12:00 AM 40.5931 -84.5008 297° West 141 162 12,400  Level Indianapolis Center
Mon 08:13:02 AM 40.6089 -84.5486 294° West 142 163 12,400  Level Indianapolis Center
Mon 08:14:04 AM 40.6306 -84.6047 297° West 144 166 12,400 49 Level Indianapolis Center
Mon 08:15:05 AM 40.6481 -84.6517 296° West 142 163 12,500 49 Climbing Indianapolis Center
Mon 08:16:07 AM 40.6636 -84.7011 293° West 145 167 12,500  Level Indianapolis Center
Mon 08:17:09 AM 40.6817 -84.7497 296° West 146 168 12,500  Level Indianapolis Center
Mon 08:18:10 AM 40.6992 -84.7994 295° West 144 166 12,500  Level Chicago Center
Mon 08:19:12 AM 40.7161 -84.8469 295° West 143 165 12,500  Level Chicago Center
Mon 08:20:14 AM 40.7339 -84.8961 296° West 147 169 12,500  Level Chicago Center
Mon 08:21:16 AM 40.7503 -84.9433 295° West 143 165 12,500  Level Chicago Center
Mon 08:22:18 AM 40.7672 -84.9925 294° West 146 168 12,500  Level Chicago Center
Mon 08:23:21 AM 40.7853 -85.0411 296° West 147 169 12,500  Level Chicago Center
Mon 08:24:23 AM 40.8053 -85.0992 294° West 146 168 12,500  Level Chicago Center
Mon 08:25:25 AM 40.8225 -85.1472 295° West 145 167 12,500  Level Chicago Center
Mon 08:26:27 AM 40.8400 -85.1975 295° West 149 171 12,500  Level Chicago Center
Mon 08:27:29 AM 40.8569 -85.2464 295° West 148 170 12,500  Level Chicago Center
Mon 08:28:31 AM 40.8744 -85.2964 295° West 148 170 12,500  Level Chicago Center
Mon 08:29:33 AM 40.8914 -85.3453 295° West 147 169 12,500  Level Chicago Center
Mon 08:30:35 AM 40.9117 -85.4028 295° West 146 168 12,500  Level Chicago Center
Mon 08:31:37 AM 40.9283 -85.4519 294° West 146 168 12,500  Level Chicago Center
Mon 08:32:39 AM 40.9456 -85.5008 295° West 146 168 12,500  Level Chicago Center
Mon 08:33:41 AM 40.9625 -85.5517 294° West 149 171 12,500  Level Chicago Center
Mon 08:34:43 AM 40.9797 -85.6006 295° West 147 169 12,500  Level Chicago Center
Mon 08:35:45 AM 40.9964 -85.6497 294° West 147 169 12,500  Level Chicago Center
Mon 08:36:48 AM 41.0167 -85.7078 295° West 145 167 12,500  Level Chicago Center
Mon 08:37:50 AM 41.0333 -85.7567 294° West 145 167 12,500  Level Chicago Center
Mon 08:38:52 AM 41.0508 -85.8069 295° West 149 171 12,500  Level Chicago Center
Mon 08:39:54 AM 41.0672 -85.8569 294° West 149 171 12,500  Level Chicago Center
Mon 08:40:56 AM 41.0842 -85.9044 295° West 145 167 12,500  Level Chicago Center
Mon 08:41:58 AM 41.1006 -85.9533 294° West 146 168 12,500  Level Chicago Center
Mon 08:43:00 AM 41.1208 -86.0119 295° West 145 167 12,500  Level Chicago Center
Mon 08:44:02 AM 41.1372 -86.0608 294° West 145 167 12,500  Level Chicago Center
Mon 08:45:04 AM 41.1542 -86.1100 295° West 146 168 12,500  Level Chicago Center
Mon 08:46:06 AM 41.1697 -86.1600 292° West 147 169 12,500 -145 Level Chicago Center
Mon 08:47:08 AM 41.1864 -86.2083 295° West 146 168 12,200 -581 Descending Chicago Center
Mon 08:48:10 AM 41.2064 -86.2633 296° West 161 185 11,300 -1,016 Descending Chicago Center
Mon 08:49:12 AM 41.2297 -86.3328 294° West 171 197 10,100 -1,056 Descending Chicago Center
Mon 08:50:15 AM 41.2489 -86.3900 294° West 171 197 9,100 -912 Descending Chicago Center
Mon 08:51:17 AM 41.2675 -86.4486 293° West 173 199 8,200 -919 Descending Chicago Center
Mon 08:52:19 AM 41.2878 -86.5092 294° West 177 204 7,200 -871 Descending Chicago Center
Mon 08:53:21 AM 41.3075 -86.5689 294° West 178 205 6,400 -871 Descending Chicago Center
Mon 08:54:23 AM 41.3278 -86.6292 294° West 178 205 5,400 -1,016 Descending Chicago Center
Mon 08:55:25 AM 41.3511 -86.7008 293° West 177 204 4,300 -774 Descending Chicago Center
Mon 08:56:27 AM 41.3717 -86.7603 295° West 176 203 3,800 -484 Descending Chicago Center

Login

Don't have an account? Register now (free) for customized features, flight alerts, and more!